createdAt,value
2019-04-01T00:01:46.960Z,56.70
2019-04-01T00:04:20.399Z,56.60
2019-04-01T00:06:53.824Z,56.60
2019-04-01T00:09:27.259Z,56.80
2019-04-01T00:12:00.687Z,56.70
2019-04-01T00:14:34.119Z,56.80
2019-04-01T00:17:07.549Z,56.80
2019-04-01T00:19:40.989Z,56.80
2019-04-01T00:22:14.412Z,56.70
2019-04-01T00:24:47.852Z,56.80
2019-04-01T00:27:21.282Z,56.70
2019-04-01T00:29:54.720Z,57.30
2019-04-01T00:32:28.139Z,56.70
2019-04-01T00:35:01.580Z,56.70
2019-04-01T00:37:35.011Z,56.60
2019-04-01T00:40:08.589Z,56.60
2019-04-01T00:43:00.068Z,56.60
2019-04-01T00:45:35.144Z,56.60
2019-04-01T00:48:08.572Z,56.50
2019-04-01T00:50:42.037Z,56.50
2019-04-01T00:53:17.978Z,56.40
2019-04-01T00:55:50.641Z,56.40
2019-04-01T00:58:24.084Z,56.40
2019-04-01T01:00:57.606Z,56.40
2019-04-01T01:03:31.035Z,56.30
2019-04-01T01:06:04.483Z,56.40
2019-04-01T01:08:37.919Z,56.40
2019-04-01T01:11:11.363Z,56.30
2019-04-01T01:13:44.808Z,57.00
2019-04-01T01:16:18.256Z,56.70
2019-04-01T01:18:51.692Z,56.70
2019-04-01T01:21:25.149Z,56.90
2019-04-01T01:23:58.593Z,56.80
2019-04-01T01:26:32.027Z,56.90
2019-04-01T01:29:05.461Z,56.90
2019-04-01T01:31:38.910Z,57.00
2019-04-01T01:34:12.328Z,57.10
2019-04-01T01:36:45.755Z,57.20
2019-04-01T01:39:19.187Z,57.10
2019-04-01T01:41:52.619Z,57.00
2019-04-01T01:44:26.051Z,57.10
2019-04-01T01:46:59.559Z,57.20
2019-04-01T01:49:32.997Z,57.30
2019-04-01T01:52:06.419Z,58.20
2019-04-01T01:54:39.846Z,58.50
2019-04-01T01:57:13.272Z,58.70
2019-04-01T01:59:46.707Z,58.70
2019-04-01T02:02:20.123Z,58.90
2019-04-01T02:04:53.565Z,58.90
2019-04-01T02:07:26.982Z,58.80
2019-04-01T02:10:00.496Z,58.80
2019-04-01T02:12:33.911Z,58.70
2019-04-01T02:15:08.089Z,58.60
2019-04-01T02:17:41.501Z,58.70
2019-04-01T02:20:14.938Z,58.60
2019-04-01T02:22:48.351Z,58.50
2019-04-01T02:25:21.785Z,58.50
2019-04-01T02:27:55.199Z,59.00
2019-04-01T02:30:28.633Z,58.60
2019-04-01T02:33:02.077Z,58.50
2019-04-01T02:35:35.568Z,58.50
2019-04-01T02:38:08.992Z,58.70
2019-04-01T02:40:42.424Z,58.90
2019-04-01T02:43:15.846Z,58.80
2019-04-01T02:45:49.356Z,58.70
2019-04-01T02:48:22.781Z,58.70
2019-04-01T02:50:56.297Z,58.70
2019-04-01T02:53:29.760Z,58.70
2019-04-01T02:56:03.202Z,58.80
2019-04-01T02:58:36.604Z,58.90
2019-04-01T03:01:10.035Z,58.90
2019-04-01T03:03:43.453Z,59.20
2019-04-01T03:06:16.889Z,59.40
2019-04-01T03:08:50.309Z,59.70
2019-04-01T03:11:23.751Z,60.00
2019-04-01T03:13:57.160Z,60.10
2019-04-01T03:16:30.600Z,60.20
2019-04-01T03:19:04.025Z,60.50
2019-04-01T03:21:37.456Z,60.70
2019-04-01T03:24:10.872Z,60.50
2019-04-01T03:26:44.311Z,60.40
2019-04-01T03:29:17.731Z,60.40
2019-04-01T03:31:51.160Z,60.30
2019-04-01T03:34:24.576Z,60.30
2019-04-01T03:36:58.007Z,60.20
2019-04-01T03:39:31.431Z,60.30
2019-04-01T03:42:04.928Z,60.30
2019-04-01T03:44:38.354Z,60.30
2019-04-01T03:47:11.782Z,60.30
2019-04-01T03:49:45.214Z,60.30
2019-04-01T03:52:18.636Z,60.00
2019-04-01T03:54:52.050Z,60.00
2019-04-01T03:57:25.471Z,60.20
2019-04-01T03:59:58.883Z,60.20
2019-04-01T04:02:32.339Z,60.40
2019-04-01T04:05:06.683Z,60.30
2019-04-01T04:07:40.112Z,60.10
2019-04-01T04:10:13.537Z,60.10
2019-04-01T04:12:46.978Z,60.10
2019-04-01T04:15:20.408Z,60.20
2019-04-01T04:17:53.841Z,60.30
2019-04-01T04:20:27.253Z,60.40
2019-04-01T04:23:00.704Z,60.40
2019-04-01T04:25:34.197Z,60.70
2019-04-01T04:28:07.713Z,60.80
2019-04-01T04:30:41.188Z,61.20
2019-04-01T04:33:14.629Z,61.20
2019-04-01T04:35:48.065Z,61.30
2019-04-01T04:38:21.534Z,62.30
2019-04-01T04:40:55.072Z,61.60
2019-04-01T04:43:28.491Z,61.90
2019-04-01T04:46:02.037Z,61.80
2019-04-01T04:48:35.483Z,61.60
2019-04-01T04:51:08.923Z,61.80
2019-04-01T04:53:42.344Z,61.90
2019-04-01T04:56:15.776Z,62.20
2019-04-01T04:58:49.215Z,62.20
2019-04-01T05:01:22.635Z,62.20
2019-04-01T05:03:56.061Z,62.20
2019-04-01T05:06:29.505Z,62.30
2019-04-01T05:09:04.553Z,62.50
2019-04-01T05:11:38.003Z,62.70
2019-04-01T05:14:11.491Z,62.80
2019-04-01T05:16:44.928Z,62.70
2019-04-01T05:19:18.359Z,62.90
2019-04-01T05:21:52.817Z,63.10
2019-04-01T05:24:27.636Z,62.80
2019-04-01T05:27:03.090Z,62.90
2019-04-01T05:29:38.431Z,62.60
2019-04-01T05:32:13.005Z,62.20
2019-04-01T05:34:48.527Z,62.10
2019-04-01T05:37:21.981Z,62.10
2019-04-01T05:39:55.400Z,61.90
2019-04-01T05:42:29.069Z,61.90
2019-04-01T05:45:02.494Z,61.90
2019-04-01T05:47:37.632Z,61.90
2019-04-01T05:50:11.126Z,61.90
2019-04-01T05:52:44.624Z,62.00
2019-04-01T05:55:18.128Z,62.00
2019-04-01T05:57:51.580Z,61.80
2019-04-01T06:00:29.584Z,61.40
2019-04-01T06:03:03.057Z,61.40
2019-04-01T06:05:36.479Z,61.20
2019-04-01T06:08:09.910Z,61.00
2019-04-01T06:10:43.324Z,60.70
2019-04-01T06:13:16.830Z,60.50
2019-04-01T06:15:50.243Z,60.10
2019-04-01T06:18:23.680Z,59.50
2019-04-01T06:20:57.095Z,59.10
2019-04-01T06:23:30.543Z,58.60
2019-04-01T06:26:04.261Z,58.30
2019-04-01T06:28:37.812Z,57.80
2019-04-01T06:31:11.363Z,57.30
2019-04-01T06:33:44.792Z,56.80
2019-04-01T06:36:18.579Z,56.30
2019-04-01T06:38:52.015Z,55.10
2019-04-01T06:41:25.437Z,54.70
2019-04-01T06:43:58.884Z,54.40
2019-04-01T06:46:32.377Z,54.20
2019-04-01T06:49:05.808Z,53.80
2019-04-01T06:51:39.244Z,53.50
2019-04-01T06:54:12.735Z,53.30
2019-04-01T06:56:46.163Z,53.10
2019-04-01T06:59:19.667Z,52.90
2019-04-01T07:01:53.175Z,52.70
2019-04-01T07:04:26.610Z,52.40
2019-04-01T07:07:00.130Z,52.30
2019-04-01T07:09:33.695Z,52.10
2019-04-01T07:12:07.188Z,52.10
2019-04-01T07:14:40.689Z,51.90
2019-04-01T07:17:14.107Z,52.00
2019-04-01T07:19:47.539Z,51.90
2019-04-01T07:22:21.394Z,51.80
2019-04-01T07:24:54.831Z,51.90
2019-04-01T07:27:28.261Z,51.80
2019-04-01T07:30:01.696Z,51.70
2019-04-01T07:32:35.135Z,51.60
2019-04-01T07:35:09.100Z,51.80
2019-04-01T07:37:42.612Z,51.70
2019-04-01T07:40:16.027Z,51.70
2019-04-01T07:42:49.452Z,51.70
2019-04-01T07:45:22.870Z,51.70
2019-04-01T07:47:56.300Z,51.70
2019-04-01T07:50:29.729Z,51.70
2019-04-01T07:53:03.251Z,51.70
2019-04-01T07:55:37.145Z,51.60
2019-04-01T07:58:10.653Z,51.60
2019-04-01T08:00:44.088Z,51.60
2019-04-01T08:03:17.521Z,51.60
2019-04-01T08:05:51.486Z,51.50
2019-04-01T08:08:24.912Z,51.60
2019-04-01T08:10:58.399Z,51.60
2019-04-01T08:13:31.908Z,52.20
2019-04-01T08:16:05.409Z,51.50
2019-04-01T08:18:38.993Z,51.40
2019-04-01T08:21:12.482Z,51.30
2019-04-01T08:23:46.081Z,51.20
2019-04-01T08:26:19.547Z,51.10
2019-04-01T08:28:52.975Z,51.10
2019-04-01T08:31:26.479Z,51.10
2019-04-01T08:33:59.913Z,51.20
2019-04-01T08:36:33.671Z,51.20
2019-04-01T08:39:10.275Z,51.10
2019-04-01T08:41:44.260Z,51.00
2019-04-01T08:44:18.124Z,51.10
2019-04-01T08:46:51.623Z,51.10
2019-04-01T08:49:25.223Z,50.90
2019-04-01T08:51:58.656Z,50.90
2019-04-01T08:54:33.060Z,50.70
2019-04-01T08:57:06.556Z,50.70
2019-04-01T08:59:39.992Z,50.70
2019-04-01T09:02:18.142Z,50.60
2019-04-01T09:04:48.647Z,50.60
2019-04-01T09:07:22.088Z,50.50
2019-04-01T09:09:57.378Z,50.40
2019-04-01T09:12:30.836Z,50.40
2019-04-01T09:15:05.461Z,50.40
2019-04-01T09:17:40.478Z,50.30
2019-04-01T09:20:14.130Z,50.10
2019-04-01T09:22:47.628Z,50.70
2019-04-01T09:25:21.063Z,50.80
2019-04-01T09:27:54.507Z,50.10
2019-04-01T09:30:27.953Z,49.90
2019-04-01T09:33:01.376Z,49.90
2019-04-01T09:35:34.816Z,49.80
2019-04-01T09:38:08.245Z,49.80
2019-04-01T09:40:41.761Z,49.80
2019-04-01T09:43:15.189Z,49.60
2019-04-01T09:45:48.631Z,49.60
2019-04-01T09:48:23.620Z,50.00
2019-04-01T09:50:57.210Z,49.40
2019-04-01T09:53:30.704Z,49.30
2019-04-01T09:56:04.140Z,49.30
2019-04-01T09:58:37.579Z,49.20
2019-04-01T10:01:11.023Z,49.20
2019-04-01T10:03:44.535Z,49.00
2019-04-01T10:06:17.971Z,49.00
2019-04-01T10:08:51.400Z,49.00
2019-04-01T10:11:24.835Z,49.00
2019-04-01T10:13:58.248Z,48.90
2019-04-01T10:16:31.688Z,48.80
2019-04-01T10:19:05.187Z,48.70
2019-04-01T10:21:38.629Z,48.70
2019-04-01T10:24:12.073Z,48.60
2019-04-01T10:26:45.564Z,48.40
2019-04-01T10:29:19.008Z,48.30
2019-04-01T10:31:52.427Z,48.30
2019-04-01T10:34:25.860Z,48.10
2019-04-01T10:36:59.289Z,47.90
2019-04-01T10:39:32.788Z,48.30
2019-04-01T10:42:06.292Z,47.80
2019-04-01T10:44:39.729Z,47.70
2019-04-01T10:47:13.210Z,47.70
2019-04-01T10:49:46.799Z,47.60
2019-04-01T10:52:20.335Z,47.30
2019-04-01T10:54:53.912Z,47.10
2019-04-01T10:57:27.397Z,47.10
2019-04-01T11:00:00.916Z,46.90
2019-04-01T11:02:34.506Z,46.90
2019-04-01T11:05:08.973Z,46.90
2019-04-01T11:07:42.378Z,46.90
2019-04-01T11:10:15.807Z,46.80
2019-04-01T11:12:49.229Z,46.60
2019-04-01T11:15:22.677Z,46.50
2019-04-01T11:17:56.094Z,46.40
2019-04-01T11:20:29.532Z,46.70
2019-04-01T11:23:04.804Z,45.90
2019-04-01T11:25:38.129Z,45.80
2019-04-01T11:28:11.616Z,45.70
2019-04-01T11:30:45.083Z,45.40
2019-04-01T11:33:18.601Z,45.40
2019-04-01T11:35:52.195Z,45.40
2019-04-01T11:38:26.024Z,45.20
2019-04-01T11:40:59.554Z,44.90
2019-04-01T11:43:35.573Z,44.80
2019-04-01T11:46:08.240Z,44.60
2019-04-01T11:48:41.716Z,44.40
2019-04-01T11:51:15.312Z,44.10
2019-04-01T11:53:48.831Z,44.20
2019-04-01T11:56:26.285Z,43.90
2019-04-01T11:58:57.792Z,43.60
2019-04-01T12:01:31.228Z,43.60
2019-04-01T12:04:04.660Z,43.50
2019-04-01T12:06:38.088Z,43.40
2019-04-01T12:09:11.516Z,43.30
2019-04-01T12:11:44.951Z,43.10
2019-04-01T12:14:18.392Z,42.80
2019-04-01T12:16:51.968Z,42.70
2019-04-01T12:19:25.393Z,42.50
2019-04-01T12:21:58.833Z,42.30
2019-04-01T12:24:32.251Z,42.10
2019-04-01T12:27:05.694Z,42.00
2019-04-01T12:29:39.601Z,41.70
2019-04-01T12:32:13.100Z,41.60
2019-04-01T12:34:46.837Z,41.50
2019-04-01T12:37:20.707Z,41.50
2019-04-01T12:39:54.141Z,41.30
2019-04-01T12:42:27.571Z,41.00
2019-04-01T12:45:01.000Z,40.80
2019-04-01T12:47:34.699Z,40.70
2019-04-01T12:50:08.255Z,41.10
2019-04-01T12:52:41.692Z,40.40
2019-04-01T12:55:15.575Z,40.40
2019-04-01T12:57:50.752Z,40.20
2019-04-01T13:00:24.564Z,40.30
2019-04-01T13:02:58.000Z,40.20
2019-04-01T13:05:31.421Z,39.90
2019-04-01T13:08:04.943Z,39.60
2019-04-01T13:10:38.395Z,39.50
2019-04-01T13:13:13.101Z,39.40
2019-04-01T13:15:46.816Z,39.30
2019-04-01T13:18:20.256Z,39.20
2019-04-01T13:20:53.703Z,39.20
2019-04-01T13:23:27.210Z,38.90
2019-04-01T13:26:00.717Z,38.70
2019-04-01T13:28:34.140Z,38.60
2019-04-01T13:31:07.647Z,38.60
2019-04-01T13:33:41.071Z,38.60
2019-04-01T13:36:14.507Z,38.40
2019-04-01T13:38:47.942Z,38.10
2019-04-01T13:41:24.969Z,37.90
2019-04-01T13:43:56.603Z,37.80
2019-04-01T13:46:30.048Z,37.80
2019-04-01T13:49:04.454Z,37.80
2019-04-01T13:51:38.509Z,37.60
2019-04-01T13:54:12.101Z,37.50
2019-04-01T13:56:45.609Z,37.20
2019-04-01T13:59:19.033Z,37.60
2019-04-01T14:01:52.476Z,36.70
2019-04-01T14:04:27.375Z,36.30
2019-04-01T14:07:01.023Z,36.00
2019-04-01T14:09:34.469Z,35.20
2019-04-01T14:12:07.931Z,33.90
2019-04-01T14:14:41.345Z,32.70
2019-04-01T14:17:14.787Z,31.90
2019-04-01T14:19:48.234Z,31.40
